sensor_id;sensor_type;location;lat;lon;timestamp;temperature;humidity
7846;DHT22;3968;51.424;6.788;2023-02-12T00:01:40;9.00;99.90
7846;DHT22;3968;51.424;6.788;2023-02-12T00:04:05;9.00;99.90
7846;DHT22;3968;51.424;6.788;2023-02-12T00:06:31;9.00;99.90
7846;DHT22;3968;51.424;6.788;2023-02-12T00:08:57;9.00;99.90
7846;DHT22;3968;51.424;6.788;2023-02-12T00:11:25;9.00;99.90
7846;DHT22;3968;51.424;6.788;2023-02-12T00:13:51;9.00;99.90
7846;DHT22;3968;51.424;6.788;2023-02-12T00:16:21;9.00;99.90
7846;DHT22;3968;51.424;6.788;2023-02-12T00:18:51;9.00;99.90
7846;DHT22;3968;51.424;6.788;2023-02-12T00:21:17;9.00;99.90
7846;DHT22;3968;51.424;6.788;2023-02-12T00:23:43;9.00;99.90
7846;DHT22;3968;51.424;6.788;2023-02-12T00:26:15;8.90;99.90
7846;DHT22;3968;51.424;6.788;2023-02-12T00:28:41;9.00;99.90
7846;DHT22;3968;51.424;6.788;2023-02-12T00:31:12;9.00;99.90
7846;DHT22;3968;51.424;6.788;2023-02-12T00:33:38;9.00;99.90
7846;DHT22;3968;51.424;6.788;2023-02-12T00:36:04;9.00;99.90
7846;DHT22;3968;51.424;6.788;2023-02-12T00:38:30;9.00;99.90
7846;DHT22;3968;51.424;6.788;2023-02-12T00:40:55;9.00;99.90
7846;DHT22;3968;51.424;6.788;2023-02-12T00:43:21;9.00;99.90
7846;DHT22;3968;51.424;6.788;2023-02-12T00:45:47;9.00;99.90
7846;DHT22;3968;51.424;6.788;2023-02-12T00:48:14;9.00;99.90
7846;DHT22;3968;51.424;6.788;2023-02-12T00:50:39;9.00;99.90
7846;DHT22;3968;51.424;6.788;2023-02-12T00:53:06;9.00;99.90
7846;DHT22;3968;51.424;6.788;2023-02-12T00:55:32;8.90;99.90
7846;DHT22;3968;51.424;6.788;2023-02-12T00:57:59;9.00;99.90
7846;DHT22;3968;51.424;6.788;2023-02-12T01:00:25;8.90;99.90
7846;DHT22;3968;51.424;6.788;2023-02-12T01:02:51;8.90;99.90
7846;DHT22;3968;51.424;6.788;2023-02-12T01:05:17;8.90;99.90
7846;DHT22;3968;51.424;6.788;2023-02-12T01:07:48;8.90;99.90
7846;DHT22;3968;51.424;6.788;2023-02-12T01:10:13;8.80;99.90
7846;DHT22;3968;51.424;6.788;2023-02-12T01:12:39;8.90;99.90
7846;DHT22;3968;51.424;6.788;2023-02-12T01:15:05;8.90;99.90
7846;DHT22;3968;51.424;6.788;2023-02-12T01:17:31;8.80;99.90
7846;DHT22;3968;51.424;6.788;2023-02-12T01:19:57;8.90;99.90
7846;DHT22;3968;51.424;6.788;2023-02-12T01:22:23;8.90;99.90
7846;DHT22;3968;51.424;6.788;2023-02-12T01:24:49;8.80;99.90
7846;DHT22;3968;51.424;6.788;2023-02-12T01:27:15;8.80;99.90
7846;DHT22;3968;51.424;6.788;2023-02-12T01:29:40;8.80;99.90
7846;DHT22;3968;51.424;6.788;2023-02-12T01:32:09;8.70;99.90
7846;DHT22;3968;51.424;6.788;2023-02-12T01:34:35;8.70;99.90
7846;DHT22;3968;51.424;6.788;2023-02-12T01:37:01;8.80;99.90
7846;DHT22;3968;51.424;6.788;2023-02-12T01:39:27;8.80;99.90
7846;DHT22;3968;51.424;6.788;2023-02-12T01:41:52;8.70;99.90
7846;DHT22;3968;51.424;6.788;2023-02-12T01:44:20;8.70;99.90
7846;DHT22;3968;51.424;6.788;2023-02-12T01:46:55;8.70;99.90
7846;DHT22;3968;51.424;6.788;2023-02-12T01:49:40;8.70;99.90
7846;DHT22;3968;51.424;6.788;2023-02-12T01:52:11;8.80;99.90
7846;DHT22;3968;51.424;6.788;2023-02-12T01:54:38;8.80;99.90
7846;DHT22;3968;51.424;6.788;2023-02-12T01:57:05;8.80;99.90
7846;DHT22;3968;51.424;6.788;2023-02-12T01:59:32;8.80;99.90
7846;DHT22;3968;51.424;6.788;2023-02-12T02:01:59;8.80;99.90
7846;DHT22;3968;51.424;6.788;2023-02-12T02:04:29;8.80;99.90
7846;DHT22;3968;51.424;6.788;2023-02-12T02:07:00;8.70;99.90
7846;DHT22;3968;51.424;6.788;2023-02-12T02:09:30;8.70;99.90
7846;DHT22;3968;51.424;6.788;2023-02-12T02:11:56;8.70;99.90
7846;DHT22;3968;51.424;6.788;2023-02-12T02:14:41;8.70;99.90
7846;DHT22;3968;51.424;6.788;2023-02-12T02:22:42;8.70;99.90
7846;DHT22;3968;51.424;6.788;2023-02-12T02:31:23;8.70;99.90
7846;DHT22;3968;51.424;6.788;2023-02-12T02:34:19;8.60;99.90
7846;DHT22;3968;51.424;6.788;2023-02-12T02:37:14;8.60;99.90
7846;DHT22;3968;51.424;6.788;2023-02-12T02:39:54;8.60;99.90
7846;DHT22;3968;51.424;6.788;2023-02-12T02:42:37;8.60;99.90
7846;DHT22;3968;51.424;6.788;2023-02-12T02:45:36;8.50;99.90
7846;DHT22;3968;51.424;6.788;2023-02-12T02:48:05;8.60;99.90
7846;DHT22;3968;51.424;6.788;2023-02-12T02:50:34;8.50;99.90
7846;DHT22;3968;51.424;6.788;2023-02-12T02:53:11;8.60;99.90
7846;DHT22;3968;51.424;6.788;2023-02-12T02:55:45;8.60;99.90
7846;DHT22;3968;51.424;6.788;2023-02-12T02:58:15;8.50;99.90
7846;DHT22;3968;51.424;6.788;2023-02-12T03:00:44;8.60;99.90
7846;DHT22;3968;51.424;6.788;2023-02-12T03:03:19;8.60;99.90
7846;DHT22;3968;51.424;6.788;2023-02-12T03:05:49;8.60;99.90
7846;DHT22;3968;51.424;6.788;2023-02-12T03:08:23;8.60;99.90
7846;DHT22;3968;51.424;6.788;2023-02-12T03:10:58;8.60;99.90
7846;DHT22;3968;51.424;6.788;2023-02-12T03:13:45;8.60;99.90
7846;DHT22;3968;51.424;6.788;2023-02-12T03:16:20;8.60;99.90
7846;DHT22;3968;51.424;6.788;2023-02-12T03:19:20;8.60;99.90
7846;DHT22;3968;51.424;6.788;2023-02-12T03:21:59;8.50;99.90
7846;DHT22;3968;51.424;6.788;2023-02-12T03:24:31;8.50;99.90
7846;DHT22;3968;51.424;6.788;2023-02-12T03:29:31;8.50;99.90
7846;DHT22;3968;51.424;6.788;2023-02-12T03:37:18;8.50;99.90
7846;DHT22;3968;51.424;6.788;2023-02-12T03:39:58;8.40;99.90
7846;DHT22;3968;51.424;6.788;2023-02-12T03:42:37;8.50;99.90
7846;DHT22;3968;51.424;6.788;2023-02-12T03:48:55;8.50;99.90
7846;DHT22;3968;51.424;6.788;2023-02-12T03:51:19;8.50;99.90
7846;DHT22;3968;51.424;6.788;2023-02-12T03:53:47;8.50;99.90
7846;DHT22;3968;51.424;6.788;2023-02-12T03:56:24;8.50;99.90
7846;DHT22;3968;51.424;6.788;2023-02-12T03:58:51;8.40;99.90
7846;DHT22;3968;51.424;6.788;2023-02-12T04:01:17;8.40;99.90
7846;DHT22;3968;51.424;6.788;2023-02-12T04:03:43;8.40;99.90
7846;DHT22;3968;51.424;6.788;2023-02-12T04:06:19;8.40;99.90
7846;DHT22;3968;51.424;6.788;2023-02-12T04:08:45;8.40;99.90
7846;DHT22;3968;51.424;6.788;2023-02-12T04:11:34;8.40;99.90
7846;DHT22;3968;51.424;6.788;2023-02-12T04:27:46;8.40;99.90
7846;DHT22;3968;51.424;6.788;2023-02-12T04:30:22;8.40;99.90
7846;DHT22;3968;51.424;6.788;2023-02-12T04:32:52;8.40;99.90
7846;DHT22;3968;51.424;6.788;2023-02-12T04:38:08;8.40;99.90
7846;DHT22;3968;51.424;6.788;2023-02-12T04:40:38;8.30;99.90
7846;DHT22;3968;51.424;6.788;2023-02-12T04:43:05;8.30;99.90
7846;DHT22;3968;51.424;6.788;2023-02-12T04:45:33;8.40;99.90
7846;DHT22;3968;51.424;6.788;2023-02-12T04:47:59;8.40;99.90
7846;DHT22;3968;51.424;6.788;2023-02-12T04:50:25;8.40;99.90
7846;DHT22;3968;51.424;6.788;2023-02-12T04:52:51;8.40;99.90
7846;DHT22;3968;51.424;6.788;2023-02-12T04:55:16;8.40;99.90
7846;DHT22;3968;51.424;6.788;2023-02-12T04:57:43;8.40;99.90
7846;DHT22;3968;51.424;6.788;2023-02-12T05:00:11;8.40;99.90
7846;DHT22;3968;51.424;6.788;2023-02-12T05:02:37;8.40;99.90
7846;DHT22;3968;51.424;6.788;2023-02-12T05:05:03;8.40;99.90
7846;DHT22;3968;51.424;6.788;2023-02-12T05:07:29;8.40;99.90
7846;DHT22;3968;51.424;6.788;2023-02-12T05:09:54;8.30;99.90
7846;DHT22;3968;51.424;6.788;2023-02-12T05:12:20;8.30;99.90
7846;DHT22;3968;51.424;6.788;2023-02-12T05:14:45;8.30;99.90
7846;DHT22;3968;51.424;6.788;2023-02-12T05:17:11;8.30;99.90
7846;DHT22;3968;51.424;6.788;2023-02-12T05:19:37;8.30;99.90
7846;DHT22;3968;51.424;6.788;2023-02-12T05:22:02;8.30;99.90
7846;DHT22;3968;51.424;6.788;2023-02-12T05:24:28;8.30;99.90
7846;DHT22;3968;51.424;6.788;2023-02-12T05:26:54;8.30;99.90
7846;DHT22;3968;51.424;6.788;2023-02-12T05:29:19;8.30;99.90
7846;DHT22;3968;51.424;6.788;2023-02-12T05:31:45;8.30;99.90
7846;DHT22;3968;51.424;6.788;2023-02-12T05:34:12;8.30;99.90
7846;DHT22;3968;51.424;6.788;2023-02-12T05:36:38;8.30;99.90
7846;DHT22;3968;51.424;6.788;2023-02-12T05:39:05;8.30;99.90
7846;DHT22;3968;51.424;6.788;2023-02-12T05:41:32;8.30;99.90
7846;DHT22;3968;51.424;6.788;2023-02-12T05:44:01;8.30;99.90
7846;DHT22;3968;51.424;6.788;2023-02-12T05:46:26;8.30;99.90
7846;DHT22;3968;51.424;6.788;2023-02-12T05:48:52;8.30;99.90
7846;DHT22;3968;51.424;6.788;2023-02-12T05:51:21;8.30;99.90
7846;DHT22;3968;51.424;6.788;2023-02-12T05:53:48;8.30;99.90
7846;DHT22;3968;51.424;6.788;2023-02-12T05:56:16;8.30;99.90
7846;DHT22;3968;51.424;6.788;2023-02-12T05:58:48;8.30;99.90
7846;DHT22;3968;51.424;6.788;2023-02-12T06:01:22;8.30;99.90
7846;DHT22;3968;51.424;6.788;2023-02-12T06:03:48;8.30;99.90
7846;DHT22;3968;51.424;6.788;2023-02-12T06:06:14;8.30;99.90
7846;DHT22;3968;51.424;6.788;2023-02-12T06:08:40;8.30;99.90
7846;DHT22;3968;51.424;6.788;2023-02-12T06:11:09;8.30;99.90
7846;DHT22;3968;51.424;6.788;2023-02-12T06:13:38;8.30;99.90
7846;DHT22;3968;51.424;6.788;2023-02-12T06:16:03;8.30;99.90
7846;DHT22;3968;51.424;6.788;2023-02-12T06:18:29;8.30;99.90
7846;DHT22;3968;51.424;6.788;2023-02-12T06:20:55;8.30;99.90
7846;DHT22;3968;51.424;6.788;2023-02-12T06:23:22;8.30;99.90
7846;DHT22;3968;51.424;6.788;2023-02-12T06:25:49;8.30;99.90
7846;DHT22;3968;51.424;6.788;2023-02-12T06:28:15;8.30;99.90
7846;DHT22;3968;51.424;6.788;2023-02-12T06:30:42;8.30;99.90
7846;DHT22;3968;51.424;6.788;2023-02-12T06:33:07;8.30;99.90
7846;DHT22;3968;51.424;6.788;2023-02-12T06:35:34;8.30;99.90
7846;DHT22;3968;51.424;6.788;2023-02-12T06:38:00;8.30;99.90
7846;DHT22;3968;51.424;6.788;2023-02-12T06:40:26;8.30;99.90
7846;DHT22;3968;51.424;6.788;2023-02-12T06:42:51;8.30;99.90
7846;DHT22;3968;51.424;6.788;2023-02-12T06:45:17;8.30;99.90
7846;DHT22;3968;51.424;6.788;2023-02-12T06:47:43;8.30;99.90
7846;DHT22;3968;51.424;6.788;2023-02-12T06:50:08;8.30;99.90
7846;DHT22;3968;51.424;6.788;2023-02-12T06:52:34;8.30;99.90
7846;DHT22;3968;51.424;6.788;2023-02-12T06:55:00;8.30;99.90
7846;DHT22;3968;51.424;6.788;2023-02-12T06:57:25;8.40;99.90
7846;DHT22;3968;51.424;6.788;2023-02-12T06:59:51;8.40;99.90
7846;DHT22;3968;51.424;6.788;2023-02-12T07:02:16;8.30;99.90
7846;DHT22;3968;51.424;6.788;2023-02-12T07:04:42;8.30;99.90
7846;DHT22;3968;51.424;6.788;2023-02-12T07:07:07;8.30;99.90
7846;DHT22;3968;51.424;6.788;2023-02-12T07:09:33;8.30;99.90
7846;DHT22;3968;51.424;6.788;2023-02-12T07:11:59;8.30;99.90
7846;DHT22;3968;51.424;6.788;2023-02-12T07:14:24;8.30;99.90
7846;DHT22;3968;51.424;6.788;2023-02-12T07:16:53;8.40;99.90
7846;DHT22;3968;51.424;6.788;2023-02-12T07:19:19;8.30;99.90
7846;DHT22;3968;51.424;6.788;2023-02-12T07:21:45;8.40;99.90
7846;DHT22;3968;51.424;6.788;2023-02-12T07:24:11;8.30;99.90
7846;DHT22;3968;51.424;6.788;2023-02-12T07:26:38;8.40;99.90
7846;DHT22;3968;51.424;6.788;2023-02-12T07:29:04;8.30;99.90
7846;DHT22;3968;51.424;6.788;2023-02-12T07:31:30;8.40;99.90
7846;DHT22;3968;51.424;6.788;2023-02-12T07:33:56;8.40;99.90
7846;DHT22;3968;51.424;6.788;2023-02-12T07:36:26;8.40;99.90
7846;DHT22;3968;51.424;6.788;2023-02-12T07:38:53;8.40;99.90
7846;DHT22;3968;51.424;6.788;2023-02-12T07:41:33;8.50;99.90
7846;DHT22;3968;51.424;6.788;2023-02-12T07:44:03;8.50;99.90
7846;DHT22;3968;51.424;6.788;2023-02-12T07:46:34;8.50;99.90
7846;DHT22;3968;51.424;6.788;2023-02-12T07:49:01;8.50;99.90
7846;DHT22;3968;51.424;6.788;2023-02-12T07:51:28;8.50;99.90
7846;DHT22;3968;51.424;6.788;2023-02-12T07:53:54;8.50;99.90
7846;DHT22;3968;51.424;6.788;2023-02-12T07:56:22;8.50;99.90
7846;DHT22;3968;51.424;6.788;2023-02-12T07:58:50;8.50;99.90
7846;DHT22;3968;51.424;6.788;2023-02-12T08:01:17;8.60;99.90
7846;DHT22;3968;51.424;6.788;2023-02-12T08:03:44;8.60;99.90
7846;DHT22;3968;51.424;6.788;2023-02-12T08:06:16;8.60;99.90
7846;DHT22;3968;51.424;6.788;2023-02-12T08:08:42;8.60;99.90
7846;DHT22;3968;51.424;6.788;2023-02-12T08:11:09;8.70;99.90
7846;DHT22;3968;51.424;6.788;2023-02-12T08:13:35;8.70;99.90
7846;DHT22;3968;51.424;6.788;2023-02-12T08:16:04;8.80;99.90
7846;DHT22;3968;51.424;6.788;2023-02-12T08:18:31;8.80;99.90
7846;DHT22;3968;51.424;6.788;2023-02-12T08:21:05;8.80;99.90
7846;DHT22;3968;51.424;6.788;2023-02-12T08:23:31;8.80;99.90
7846;DHT22;3968;51.424;6.788;2023-02-12T08:28:30;8.90;99.90
7846;DHT22;3968;51.424;6.788;2023-02-12T08:31:03;8.90;99.90
7846;DHT22;3968;51.424;6.788;2023-02-12T08:33:29;8.90;99.90
7846;DHT22;3968;51.424;6.788;2023-02-12T08:36:10;8.90;99.90
7846;DHT22;3968;51.424;6.788;2023-02-12T08:38:37;8.90;99.90
7846;DHT22;3968;51.424;6.788;2023-02-12T08:41:07;9.00;99.90
7846;DHT22;3968;51.424;6.788;2023-02-12T08:43:34;9.00;99.90
7846;DHT22;3968;51.424;6.788;2023-02-12T08:46:05;9.10;99.90
7846;DHT22;3968;51.424;6.788;2023-02-12T08:48:31;9.10;99.90
7846;DHT22;3968;51.424;6.788;2023-02-12T08:51:03;9.10;99.90
7846;DHT22;3968;51.424;6.788;2023-02-12T08:53:29;9.20;99.90
7846;DHT22;3968;51.424;6.788;2023-02-12T08:55:54;9.10;99.90
7846;DHT22;3968;51.424;6.788;2023-02-12T08:58:20;9.20;99.90
7846;DHT22;3968;51.424;6.788;2023-02-12T09:00:46;9.20;99.90
7846;DHT22;3968;51.424;6.788;2023-02-12T09:03:11;9.20;99.90
7846;DHT22;3968;51.424;6.788;2023-02-12T09:05:38;9.30;99.90
7846;DHT22;3968;51.424;6.788;2023-02-12T09:08:04;9.30;99.90
7846;DHT22;3968;51.424;6.788;2023-02-12T09:10:29;9.40;99.90
7846;DHT22;3968;51.424;6.788;2023-02-12T09:12:55;9.40;99.90
7846;DHT22;3968;51.424;6.788;2023-02-12T09:15:21;9.50;99.90
7846;DHT22;3968;51.424;6.788;2023-02-12T09:17:46;9.50;99.90
7846;DHT22;3968;51.424;6.788;2023-02-12T09:20:12;9.60;99.90
7846;DHT22;3968;51.424;6.788;2023-02-12T09:22:37;9.60;99.90
7846;DHT22;3968;51.424;6.788;2023-02-12T09:25:04;9.70;99.90
7846;DHT22;3968;51.424;6.788;2023-02-12T09:27:30;9.70;99.90
7846;DHT22;3968;51.424;6.788;2023-02-12T09:29:56;9.70;99.90
7846;DHT22;3968;51.424;6.788;2023-02-12T09:32:22;9.70;99.90
7846;DHT22;3968;51.424;6.788;2023-02-12T09:34:47;9.80;99.90
7846;DHT22;3968;51.424;6.788;2023-02-12T09:37:13;9.70;99.90
7846;DHT22;3968;51.424;6.788;2023-02-12T09:39:38;9.80;99.90
7846;DHT22;3968;51.424;6.788;2023-02-12T09:47:51;10.00;99.90
7846;DHT22;3968;51.424;6.788;2023-02-12T09:50:36;10.00;99.90
7846;DHT22;3968;51.424;6.788;2023-02-12T09:53:05;10.00;99.90
7846;DHT22;3968;51.424;6.788;2023-02-12T09:55:34;10.10;99.90
7846;DHT22;3968;51.424;6.788;2023-02-12T09:58:02;10.10;99.90
7846;DHT22;3968;51.424;6.788;2023-02-12T10:00:30;10.20;99.90
7846;DHT22;3968;51.424;6.788;2023-02-12T10:03:00;10.20;99.90
7846;DHT22;3968;51.424;6.788;2023-02-12T10:05:31;10.20;99.90
7846;DHT22;3968;51.424;6.788;2023-02-12T10:13:42;10.40;99.90
7846;DHT22;3968;51.424;6.788;2023-02-12T10:19:11;10.40;99.90
7846;DHT22;3968;51.424;6.788;2023-02-12T10:27:16;10.50;99.90
7846;DHT22;3968;51.424;6.788;2023-02-12T10:29:44;10.50;99.90
7846;DHT22;3968;51.424;6.788;2023-02-12T10:32:36;10.50;99.90
7846;DHT22;3968;51.424;6.788;2023-02-12T10:35:15;10.60;99.90
7846;DHT22;3968;51.424;6.788;2023-02-12T10:37:52;10.60;99.90
7846;DHT22;3968;51.424;6.788;2023-02-12T10:40:25;10.70;99.90
7846;DHT22;3968;51.424;6.788;2023-02-12T10:42:53;10.70;99.90
7846;DHT22;3968;51.424;6.788;2023-02-12T10:45:21;10.90;99.90
7846;DHT22;3968;51.424;6.788;2023-02-12T10:47:53;11.10;99.90
7846;DHT22;3968;51.424;6.788;2023-02-12T10:50:48;11.10;99.90
7846;DHT22;3968;51.424;6.788;2023-02-12T10:53:29;11.10;99.90
7846;DHT22;3968;51.424;6.788;2023-02-12T10:58:58;11.20;99.90
7846;DHT22;3968;51.424;6.788;2023-02-12T11:01:28;11.20;99.90
7846;DHT22;3968;51.424;6.788;2023-02-12T11:03:55;11.10;99.90
7846;DHT22;3968;51.424;6.788;2023-02-12T11:06:27;11.10;99.90
7846;DHT22;3968;51.424;6.788;2023-02-12T11:08:54;11.10;99.90
7846;DHT22;3968;51.424;6.788;2023-02-12T11:11:23;11.10;99.90
7846;DHT22;3968;51.424;6.788;2023-02-12T11:13:59;11.00;99.90
7846;DHT22;3968;51.424;6.788;2023-02-12T11:19:09;11.10;99.90
7846;DHT22;3968;51.424;6.788;2023-02-12T11:21:43;11.10;99.90
7846;DHT22;3968;51.424;6.788;2023-02-12T11:29:43;11.10;99.90
7846;DHT22;3968;51.424;6.788;2023-02-12T11:32:15;11.10;99.90
7846;DHT22;3968;51.424;6.788;2023-02-12T11:34:41;11.10;99.90
7846;DHT22;3968;51.424;6.788;2023-02-12T11:37:17;11.10;99.90
7846;DHT22;3968;51.424;6.788;2023-02-12T11:39:48;11.10;99.90
7846;DHT22;3968;51.424;6.788;2023-02-12T11:42:17;11.10;99.90
7846;DHT22;3968;51.424;6.788;2023-02-12T11:47:26;11.10;99.90
7846;DHT22;3968;51.424;6.788;2023-02-12T11:52:39;11.10;99.90
7846;DHT22;3968;51.424;6.788;2023-02-12T11:55:22;11.00;99.90
7846;DHT22;3968;51.424;6.788;2023-02-12T11:57:51;11.00;99.90
7846;DHT22;3968;51.424;6.788;2023-02-12T12:02:56;11.00;99.90
7846;DHT22;3968;51.424;6.788;2023-02-12T12:05:30;11.00;99.90
7846;DHT22;3968;51.424;6.788;2023-02-12T12:08:02;11.00;99.90
7846;DHT22;3968;51.424;6.788;2023-02-12T12:10:54;11.00;99.90
7846;DHT22;3968;51.424;6.788;2023-02-12T12:13:26;11.10;99.90
7846;DHT22;3968;51.424;6.788;2023-02-12T12:16:03;11.00;99.90
7846;DHT22;3968;51.424;6.788;2023-02-12T12:18:55;11.00;99.90
7846;DHT22;3968;51.424;6.788;2023-02-12T12:22:03;11.00;99.90
7846;DHT22;3968;51.424;6.788;2023-02-12T12:25:24;11.00;99.90
7846;DHT22;3968;51.424;6.788;2023-02-12T12:27:59;11.00;99.90
7846;DHT22;3968;51.424;6.788;2023-02-12T12:33:18;11.00;99.90
7846;DHT22;3968;51.424;6.788;2023-02-12T12:36:03;10.90;99.90
7846;DHT22;3968;51.424;6.788;2023-02-12T12:44:12;11.10;99.90
7846;DHT22;3968;51.424;6.788;2023-02-12T13:02:51;11.10;99.90
7846;DHT22;3968;51.424;6.788;2023-02-12T13:11:01;11.20;99.90
7846;DHT22;3968;51.424;6.788;2023-02-12T13:13:38;11.10;99.90
7846;DHT22;3968;51.424;6.788;2023-02-12T13:16:22;11.20;99.90
7846;DHT22;3968;51.424;6.788;2023-02-12T13:22:19;11.10;99.90
7846;DHT22;3968;51.424;6.788;2023-02-12T13:24:59;11.10;99.90
7846;DHT22;3968;51.424;6.788;2023-02-12T13:27:31;11.10;99.90
7846;DHT22;3968;51.424;6.788;2023-02-12T13:30:05;11.20;99.90
7846;DHT22;3968;51.424;6.788;2023-02-12T13:32:39;11.20;99.90
7846;DHT22;3968;51.424;6.788;2023-02-12T13:35:15;11.10;99.90
7846;DHT22;3968;51.424;6.788;2023-02-12T13:37:49;11.10;99.90
7846;DHT22;3968;51.424;6.788;2023-02-12T13:40:18;11.10;99.90
7846;DHT22;3968;51.424;6.788;2023-02-12T13:45:59;11.10;99.90
7846;DHT22;3968;51.424;6.788;2023-02-12T13:54:13;11.10;99.90
7846;DHT22;3968;51.424;6.788;2023-02-12T13:56:46;11.10;99.90
7846;DHT22;3968;51.424;6.788;2023-02-12T14:02:01;11.00;99.90
7846;DHT22;3968;51.424;6.788;2023-02-12T14:04:53;11.00;99.90
7846;DHT22;3968;51.424;6.788;2023-02-12T14:07:20;10.90;99.90
7846;DHT22;3968;51.424;6.788;2023-02-12T14:14:53;11.00;99.90
7846;DHT22;3968;51.424;6.788;2023-02-12T14:17:41;11.00;99.90
7846;DHT22;3968;51.424;6.788;2023-02-12T14:20:36;11.00;99.90
7846;DHT22;3968;51.424;6.788;2023-02-12T14:23:25;11.00;99.90
7846;DHT22;3968;51.424;6.788;2023-02-12T14:26:00;10.90;99.90
7846;DHT22;3968;51.424;6.788;2023-02-12T14:33:46;10.90;99.90
7846;DHT22;3968;51.424;6.788;2023-02-12T14:41:41;10.90;99.90
7846;DHT22;3968;51.424;6.788;2023-02-12T14:46:43;10.80;99.90
7846;DHT22;3968;51.424;6.788;2023-02-12T14:49:37;10.80;99.90
7846;DHT22;3968;51.424;6.788;2023-02-12T14:54:59;10.80;99.90
7846;DHT22;3968;51.424;6.788;2023-02-12T14:57:29;10.80;99.90
7846;DHT22;3968;51.424;6.788;2023-02-12T15:05:29;10.80;99.90
7846;DHT22;3968;51.424;6.788;2023-02-12T15:08:05;10.80;99.90
7846;DHT22;3968;51.424;6.788;2023-02-12T15:10:36;10.80;99.90
7846;DHT22;3968;51.424;6.788;2023-02-12T15:13:22;10.80;99.90
7846;DHT22;3968;51.424;6.788;2023-02-12T15:15:56;10.80;99.90
7846;DHT22;3968;51.424;6.788;2023-02-12T15:19:03;10.80;99.90
7846;DHT22;3968;51.424;6.788;2023-02-12T15:21:32;10.80;99.90
7846;DHT22;3968;51.424;6.788;2023-02-12T15:24:01;10.70;99.90
7846;DHT22;3968;51.424;6.788;2023-02-12T15:26:29;10.70;99.90
7846;DHT22;3968;51.424;6.788;2023-02-12T15:28:56;10.70;99.90
7846;DHT22;3968;51.424;6.788;2023-02-12T15:31:26;10.70;99.90
7846;DHT22;3968;51.424;6.788;2023-02-12T15:33:53;10.70;99.90
7846;DHT22;3968;51.424;6.788;2023-02-12T15:36:22;10.60;99.90
7846;DHT22;3968;51.424;6.788;2023-02-12T15:39:13;10.60;99.90
7846;DHT22;3968;51.424;6.788;2023-02-12T15:41:42;10.60;99.90
7846;DHT22;3968;51.424;6.788;2023-02-12T15:44:23;10.60;99.90
7846;DHT22;3968;51.424;6.788;2023-02-12T15:47:08;10.60;99.90
7846;DHT22;3968;51.424;6.788;2023-02-12T15:49:37;10.60;99.90
7846;DHT22;3968;51.424;6.788;2023-02-12T15:52:16;10.60;99.90
7846;DHT22;3968;51.424;6.788;2023-02-12T15:54:44;10.60;99.90
7846;DHT22;3968;51.424;6.788;2023-02-12T15:57:12;10.60;99.90
7846;DHT22;3968;51.424;6.788;2023-02-12T15:59:39;10.60;99.90
7846;DHT22;3968;51.424;6.788;2023-02-12T16:02:19;10.60;99.90
7846;DHT22;3968;51.424;6.788;2023-02-12T16:04:45;10.60;99.90
7846;DHT22;3968;51.424;6.788;2023-02-12T16:07:12;10.60;99.90
7846;DHT22;3968;51.424;6.788;2023-02-12T16:09:39;10.50;99.90
7846;DHT22;3968;51.424;6.788;2023-02-12T16:12:12;10.60;99.90
7846;DHT22;3968;51.424;6.788;2023-02-12T16:14:55;10.50;99.90
7846;DHT22;3968;51.424;6.788;2023-02-12T16:17:31;10.50;99.90
7846;DHT22;3968;51.424;6.788;2023-02-12T16:20:01;10.50;99.90
7846;DHT22;3968;51.424;6.788;2023-02-12T16:22:32;10.50;99.90
7846;DHT22;3968;51.424;6.788;2023-02-12T16:24:59;10.50;99.90
7846;DHT22;3968;51.424;6.788;2023-02-12T16:27:33;10.50;99.90
7846;DHT22;3968;51.424;6.788;2023-02-12T16:30:05;10.50;99.90
7846;DHT22;3968;51.424;6.788;2023-02-12T16:32:40;10.50;99.90
7846;DHT22;3968;51.424;6.788;2023-02-12T16:47:53;10.50;99.90
7846;DHT22;3968;51.424;6.788;2023-02-12T16:50:21;10.50;99.90
7846;DHT22;3968;51.424;6.788;2023-02-12T16:52:59;10.40;99.90
7846;DHT22;3968;51.424;6.788;2023-02-12T16:55:25;10.40;99.90
7846;DHT22;3968;51.424;6.788;2023-02-12T16:57:51;10.40;99.90
7846;DHT22;3968;51.424;6.788;2023-02-12T17:00:17;10.40;99.90
7846;DHT22;3968;51.424;6.788;2023-02-12T17:02:43;10.40;99.90
7846;DHT22;3968;51.424;6.788;2023-02-12T17:05:09;10.40;99.90
7846;DHT22;3968;51.424;6.788;2023-02-12T17:07:35;10.40;99.90
7846;DHT22;3968;51.424;6.788;2023-02-12T17:10:02;10.40;99.90
7846;DHT22;3968;51.424;6.788;2023-02-12T17:12:27;10.40;99.90
7846;DHT22;3968;51.424;6.788;2023-02-12T17:14:53;10.40;99.90
7846;DHT22;3968;51.424;6.788;2023-02-12T17:17:20;10.40;99.90
7846;DHT22;3968;51.424;6.788;2023-02-12T17:19:46;10.40;99.90
7846;DHT22;3968;51.424;6.788;2023-02-12T17:22:23;10.40;99.90
7846;DHT22;3968;51.424;6.788;2023-02-12T17:24:50;10.40;99.90
7846;DHT22;3968;51.424;6.788;2023-02-12T17:27:17;10.40;99.90
7846;DHT22;3968;51.424;6.788;2023-02-12T17:29:43;10.40;99.90
7846;DHT22;3968;51.424;6.788;2023-02-12T17:32:09;10.40;99.90
7846;DHT22;3968;51.424;6.788;2023-02-12T17:34:35;10.40;99.90
7846;DHT22;3968;51.424;6.788;2023-02-12T17:37:04;10.40;99.90
7846;DHT22;3968;51.424;6.788;2023-02-12T17:39:30;10.40;99.90
7846;DHT22;3968;51.424;6.788;2023-02-12T17:41:56;10.40;99.90
7846;DHT22;3968;51.424;6.788;2023-02-12T17:44:24;10.40;99.90
7846;DHT22;3968;51.424;6.788;2023-02-12T17:46:50;10.40;99.90
7846;DHT22;3968;51.424;6.788;2023-02-12T17:49:16;10.40;99.90
7846;DHT22;3968;51.424;6.788;2023-02-12T17:51:41;10.40;99.90
7846;DHT22;3968;51.424;6.788;2023-02-12T17:54:07;10.40;99.90
7846;DHT22;3968;51.424;6.788;2023-02-12T17:56:33;10.40;99.90
7846;DHT22;3968;51.424;6.788;2023-02-12T17:58:59;10.30;99.90
7846;DHT22;3968;51.424;6.788;2023-02-12T18:01:24;10.30;99.90
7846;DHT22;3968;51.424;6.788;2023-02-12T18:03:50;10.30;99.90
7846;DHT22;3968;51.424;6.788;2023-02-12T18:06:23;10.30;99.90
7846;DHT22;3968;51.424;6.788;2023-02-12T18:08:49;10.30;99.90
7846;DHT22;3968;51.424;6.788;2023-02-12T18:11:14;10.30;99.90
7846;DHT22;3968;51.424;6.788;2023-02-12T18:13:43;10.30;99.90
7846;DHT22;3968;51.424;6.788;2023-02-12T18:16:10;10.30;99.90
7846;DHT22;3968;51.424;6.788;2023-02-12T18:18:37;10.30;99.90
7846;DHT22;3968;51.424;6.788;2023-02-12T18:21:10;10.30;99.90
7846;DHT22;3968;51.424;6.788;2023-02-12T18:23:36;10.30;99.90
7846;DHT22;3968;51.424;6.788;2023-02-12T18:26:07;10.20;99.90
7846;DHT22;3968;51.424;6.788;2023-02-12T18:28:34;10.20;99.90
7846;DHT22;3968;51.424;6.788;2023-02-12T18:31:00;10.20;99.90
7846;DHT22;3968;51.424;6.788;2023-02-12T18:33:25;10.20;99.90
7846;DHT22;3968;51.424;6.788;2023-02-12T18:36:02;10.20;99.90
7846;DHT22;3968;51.424;6.788;2023-02-12T18:38:29;10.20;99.90
7846;DHT22;3968;51.424;6.788;2023-02-12T18:40:55;10.20;99.90
7846;DHT22;3968;51.424;6.788;2023-02-12T18:43:21;10.20;99.90
7846;DHT22;3968;51.424;6.788;2023-02-12T18:45:47;10.20;99.90
7846;DHT22;3968;51.424;6.788;2023-02-12T18:48:13;10.20;99.90
7846;DHT22;3968;51.424;6.788;2023-02-12T18:50:38;10.20;99.90
7846;DHT22;3968;51.424;6.788;2023-02-12T18:53:04;10.20;99.90
7846;DHT22;3968;51.424;6.788;2023-02-12T18:55:30;10.20;99.90
7846;DHT22;3968;51.424;6.788;2023-02-12T18:57:55;10.20;99.90
7846;DHT22;3968;51.424;6.788;2023-02-12T19:00:21;10.20;99.90
7846;DHT22;3968;51.424;6.788;2023-02-12T19:02:47;10.20;99.90
7846;DHT22;3968;51.424;6.788;2023-02-12T19:05:12;10.20;99.90
7846;DHT22;3968;51.424;6.788;2023-02-12T19:07:38;10.20;99.90
7846;DHT22;3968;51.424;6.788;2023-02-12T19:10:04;10.10;99.90
7846;DHT22;3968;51.424;6.788;2023-02-12T19:12:30;10.10;99.90
7846;DHT22;3968;51.424;6.788;2023-02-12T19:14:56;10.10;99.90